createdAt,value
2023-05-19T00:02:27.251Z,11.91
2023-05-19T00:05:31.234Z,11.85
2023-05-19T00:08:35.161Z,11.92
2023-05-19T00:11:40.830Z,11.93
2023-05-19T00:14:44.180Z,11.93
2023-05-19T00:17:47.800Z,11.93
2023-05-19T00:20:52.516Z,11.92
2023-05-19T00:23:56.448Z,11.91
2023-05-19T00:26:59.814Z,11.91
2023-05-19T00:30:03.157Z,11.86
2023-05-19T00:33:06.486Z,11.84
2023-05-19T00:36:10.359Z,11.81
2023-05-19T00:39:13.657Z,11.77
2023-05-19T00:42:17.941Z,11.79
2023-05-19T00:45:21.149Z,11.79
2023-05-19T00:48:26.136Z,11.81
2023-05-19T00:51:29.939Z,11.80
2023-05-19T00:54:36.582Z,11.79
2023-05-19T00:57:39.991Z,11.78
2023-05-19T01:00:44.496Z,11.75
2023-05-19T01:03:49.143Z,11.77
2023-05-19T01:06:55.931Z,11.76
2023-05-19T01:10:00.171Z,11.70
2023-05-19T01:13:05.756Z,11.72
2023-05-19T01:16:21.529Z,11.74
2023-05-19T01:19:37.139Z,11.77
2023-05-19T01:23:01.995Z,11.80
2023-05-19T01:26:30.386Z,11.81
2023-05-19T01:29:45.770Z,11.84
2023-05-19T01:32:51.653Z,11.82
2023-05-19T01:35:56.663Z,11.80
2023-05-19T01:39:02.374Z,11.70
2023-05-19T01:42:06.871Z,11.72
2023-05-19T01:45:11.634Z,11.75
2023-05-19T01:48:15.545Z,11.76
2023-05-19T01:51:19.189Z,11.77
2023-05-19T01:54:22.770Z,11.75
2023-05-19T01:57:50.949Z,11.79
2023-05-19T02:01:15.876Z,11.81
2023-05-19T02:04:32.570Z,11.78
2023-05-19T02:07:45.259Z,11.76
2023-05-19T02:10:55.553Z,11.76
2023-05-19T02:14:03.092Z,11.79
2023-05-19T02:17:06.755Z,11.78
2023-05-19T02:20:10.477Z,11.78
2023-05-19T02:23:13.839Z,11.76
2023-05-19T02:26:17.025Z,11.65
2023-05-19T02:29:21.476Z,11.71
2023-05-19T02:32:26.539Z,11.67
2023-05-19T02:35:29.927Z,11.67
2023-05-19T02:38:33.041Z,11.67
2023-05-19T02:41:36.928Z,11.72
2023-05-19T02:44:40.352Z,11.68
2023-05-19T02:47:43.747Z,11.72
2023-05-19T02:50:47.065Z,11.76
2023-05-19T02:53:51.042Z,11.75
2023-05-19T02:56:54.227Z,11.74
2023-05-19T02:59:57.895Z,11.75
2023-05-19T03:03:03.025Z,11.67
2023-05-19T03:06:08.843Z,11.69
2023-05-19T03:09:11.977Z,11.67
2023-05-19T03:12:15.453Z,11.66
2023-05-19T03:15:19.410Z,11.59
2023-05-19T03:18:24.958Z,11.60
2023-05-19T03:21:30.469Z,11.55
2023-05-19T03:24:35.066Z,11.49
2023-05-19T03:27:38.542Z,11.46
2023-05-19T03:30:42.459Z,11.40
2023-05-19T03:33:45.929Z,11.33
2023-05-19T03:36:50.489Z,11.32
2023-05-19T03:39:53.697Z,11.32
2023-05-19T03:42:57.347Z,11.30
2023-05-19T03:46:01.008Z,11.27
2023-05-19T03:49:06.591Z,11.31
2023-05-19T03:52:11.103Z,11.32
2023-05-19T03:55:20.338Z,11.37
2023-05-19T03:58:24.233Z,11.41
2023-05-19T04:01:29.806Z,11.48
2023-05-19T04:04:34.184Z,11.52
2023-05-19T04:07:37.345Z,11.61
2023-05-19T04:10:40.792Z,11.67
2023-05-19T04:13:45.195Z,11.73
2023-05-19T04:16:49.067Z,11.78
2023-05-19T04:19:55.765Z,11.81
2023-05-19T04:22:59.224Z,11.80
2023-05-19T04:26:06.332Z,11.84
2023-05-19T04:29:10.898Z,11.92
2023-05-19T04:32:17.985Z,11.89
2023-05-19T04:35:22.712Z,11.87
2023-05-19T04:38:26.294Z,11.99
2023-05-19T04:41:29.682Z,12.09
2023-05-19T04:44:33.824Z,12.16
2023-05-19T04:47:38.277Z,12.24
2023-05-19T04:50:42.460Z,12.33
2023-05-19T04:53:47.471Z,12.50
2023-05-19T04:56:50.818Z,12.70
2023-05-19T05:00:00.416Z,12.94
2023-05-19T05:03:07.982Z,13.28
2023-05-19T05:06:12.222Z,13.39
2023-05-19T05:09:17.007Z,13.45
2023-05-19T05:12:22.100Z,13.59
2023-05-19T05:15:28.977Z,13.86
2023-05-19T05:18:34.867Z,14.21
2023-05-19T05:21:38.684Z,14.49
2023-05-19T05:24:45.408Z,14.62
2023-05-19T05:27:49.672Z,14.53
2023-05-19T05:30:56.606Z,14.55
2023-05-19T05:34:00.461Z,14.58
2023-05-19T05:37:04.392Z,14.39
2023-05-19T05:40:08.615Z,14.56
2023-05-19T05:43:13.071Z,14.52
2023-05-19T05:46:17.229Z,14.60
2023-05-19T05:49:21.190Z,14.54
2023-05-19T05:52:29.972Z,14.66
2023-05-19T05:55:36.266Z,14.69
2023-05-19T05:58:41.474Z,14.92
2023-05-19T06:01:45.198Z,15.12
2023-05-19T06:04:48.654Z,15.45
2023-05-19T06:07:52.072Z,15.30
2023-05-19T06:10:55.744Z,15.39
2023-05-19T06:13:59.115Z,15.30
2023-05-19T06:17:05.499Z,15.21
2023-05-19T06:20:10.291Z,15.10
2023-05-19T06:23:14.027Z,15.17
2023-05-19T06:26:17.338Z,15.46
2023-05-19T06:29:21.129Z,15.53
2023-05-19T06:32:24.597Z,15.99
2023-05-19T06:35:28.406Z,15.92
2023-05-19T06:38:31.731Z,16.12
2023-05-19T06:41:35.453Z,16.20
2023-05-19T06:44:39.475Z,17.01
2023-05-19T06:47:45.742Z,16.73
2023-05-19T06:50:51.077Z,17.47
2023-05-19T06:53:55.999Z,17.42
2023-05-19T06:56:59.606Z,17.52
2023-05-19T07:00:13.431Z,17.86
2023-05-19T07:03:18.846Z,18.02
2023-05-19T07:06:22.539Z,18.30
2023-05-19T07:09:29.941Z,17.91
2023-05-19T07:12:33.417Z,17.71
2023-05-19T07:15:38.403Z,17.86
2023-05-19T07:18:45.207Z,17.83
2023-05-19T07:21:48.636Z,18.38
2023-05-19T07:24:52.901Z,18.53
2023-05-19T07:27:57.788Z,18.66
2023-05-19T07:31:01.620Z,19.35
2023-05-19T07:34:05.182Z,19.11
2023-05-19T07:37:08.633Z,19.31
2023-05-19T07:40:12.147Z,18.52
2023-05-19T07:43:15.743Z,19.50
2023-05-19T07:46:19.004Z,20.10
2023-05-19T07:49:22.602Z,20.13
2023-05-19T07:52:27.737Z,20.13
2023-05-19T07:55:31.213Z,20.06
2023-05-19T07:58:34.382Z,19.50
2023-05-19T08:01:37.736Z,19.32
2023-05-19T08:04:41.187Z,18.95
2023-05-19T08:07:44.239Z,19.31
2023-05-19T08:10:47.854Z,18.81
2023-05-19T08:13:51.911Z,19.10
2023-05-19T08:16:56.760Z,19.65
2023-05-19T08:20:00.535Z,19.78
2023-05-19T08:23:04.710Z,19.91
2023-05-19T08:26:07.868Z,20.28
2023-05-19T08:29:11.254Z,20.16
2023-05-19T08:32:14.341Z,19.66
2023-05-19T08:35:17.844Z,19.98
2023-05-19T08:38:21.157Z,20.70
2023-05-19T08:41:24.600Z,20.85
2023-05-19T08:44:27.921Z,21.30
2023-05-19T08:47:32.875Z,21.28
2023-05-19T08:50:40.403Z,21.42
2023-05-19T08:53:50.874Z,20.59
2023-05-19T08:56:56.089Z,20.81
2023-05-19T09:00:00.331Z,21.55
2023-05-19T09:03:17.446Z,21.18
2023-05-19T09:06:23.469Z,21.36
2023-05-19T09:09:26.793Z,21.14
2023-05-19T09:12:30.509Z,21.10
2023-05-19T09:15:37.067Z,21.24
2023-05-19T09:18:43.266Z,21.42
2023-05-19T09:21:46.596Z,21.21
2023-05-19T09:24:50.062Z,21.43
2023-05-19T09:27:55.457Z,21.17
2023-05-19T09:31:07.978Z,22.02
2023-05-19T09:34:14.388Z,22.51
2023-05-19T09:37:23.290Z,22.27
2023-05-19T09:40:28.963Z,22.24
2023-05-19T09:43:34.622Z,22.84
2023-05-19T09:46:38.041Z,23.06
2023-05-19T09:49:47.572Z,23.19
2023-05-19T09:52:53.167Z,23.23
2023-05-19T09:55:58.169Z,23.26
2023-05-19T09:59:04.831Z,23.42
2023-05-19T10:02:15.960Z,23.67
2023-05-19T10:05:20.948Z,22.05
2023-05-19T10:08:26.708Z,21.29
2023-05-19T10:11:31.115Z,21.72
2023-05-19T10:14:34.440Z,22.49
2023-05-19T10:17:42.700Z,23.23
2023-05-19T10:20:47.840Z,23.28
2023-05-19T10:23:51.224Z,22.67
2023-05-19T10:27:03.972Z,21.59
2023-05-19T10:30:22.130Z,20.63
2023-05-19T10:33:44.030Z,20.23
2023-05-19T10:36:55.950Z,21.99
2023-05-19T10:39:59.975Z,22.66
2023-05-19T10:43:18.377Z,23.18
2023-05-19T10:46:27.096Z,23.59
2023-05-19T10:49:36.052Z,21.72
2023-05-19T10:52:40.792Z,21.09
2023-05-19T10:55:59.262Z,20.96
2023-05-19T10:59:03.897Z,21.09
2023-05-19T11:02:08.924Z,21.19
2023-05-19T11:05:14.806Z,21.13
2023-05-19T11:08:33.727Z,22.08
2023-05-19T11:12:04.108Z,23.25
2023-05-19T11:15:10.617Z,24.05
2023-05-19T11:18:17.783Z,22.80
2023-05-19T11:21:21.149Z,23.16
2023-05-19T11:24:44.480Z,22.23
2023-05-19T11:27:47.898Z,23.46
2023-05-19T11:30:54.751Z,24.79
2023-05-19T11:33:58.713Z,25.04
2023-05-19T11:37:01.877Z,24.41
2023-05-19T11:40:09.759Z,24.72
2023-05-19T11:43:12.840Z,25.15
2023-05-19T11:46:17.742Z,24.56
2023-05-19T11:49:20.939Z,25.26
2023-05-19T11:52:27.646Z,25.33
2023-05-19T11:55:30.883Z,25.72
2023-05-19T11:58:34.459Z,24.26
2023-05-19T12:01:37.633Z,24.12
2023-05-19T12:04:41.178Z,23.22
2023-05-19T12:07:44.532Z,23.66
2023-05-19T12:10:52.610Z,24.01
2023-05-19T12:13:59.099Z,24.63
2023-05-19T12:17:14.260Z,25.57
2023-05-19T12:20:19.968Z,25.05
2023-05-19T12:23:25.262Z,25.77
2023-05-19T12:26:28.406Z,24.87
2023-05-19T12:29:33.146Z,23.60
2023-05-19T12:32:36.607Z,22.67
2023-05-19T12:35:40.028Z,22.12
2023-05-19T12:38:43.859Z,23.62
2023-05-19T12:41:47.425Z,24.51
2023-05-19T12:44:52.712Z,25.09
2023-05-19T12:47:56.497Z,26.16
2023-05-19T12:51:01.654Z,26.00
2023-05-19T12:54:05.152Z,25.03
2023-05-19T12:57:11.300Z,24.59
2023-05-19T13:00:19.083Z,23.77
2023-05-19T13:03:22.472Z,22.89
2023-05-19T13:06:26.204Z,23.48
2023-05-19T13:09:29.337Z,24.37
2023-05-19T13:12:32.846Z,25.12
2023-05-19T13:15:40.600Z,25.82
2023-05-19T13:18:44.174Z,25.34
2023-05-19T13:21:51.285Z,25.56
2023-05-19T13:24:54.619Z,24.22
2023-05-19T13:27:59.554Z,25.16
2023-05-19T13:31:02.992Z,24.47
2023-05-19T13:34:06.320Z,25.18
2023-05-19T13:37:10.300Z,25.41
2023-05-19T13:40:15.055Z,25.88
2023-05-19T13:43:18.543Z,25.59
2023-05-19T13:46:32.775Z,25.04
2023-05-19T13:49:46.579Z,25.34
2023-05-19T13:52:49.781Z,25.32
2023-05-19T13:55:55.285Z,25.22
2023-05-19T13:58:58.634Z,25.03
2023-05-19T14:02:06.655Z,24.58
2023-05-19T14:05:11.078Z,23.68
2023-05-19T14:08:14.468Z,23.51
2023-05-19T14:11:22.772Z,23.68
2023-05-19T14:14:26.136Z,23.77
2023-05-19T14:17:29.612Z,23.96
2023-05-19T14:20:33.254Z,23.77
2023-05-19T14:23:36.873Z,23.83
2023-05-19T14:26:40.122Z,23.81
2023-05-19T14:29:43.684Z,23.56
2023-05-19T14:32:46.839Z,23.38
2023-05-19T14:35:50.685Z,23.44
2023-05-19T14:38:53.765Z,23.34
2023-05-19T14:41:59.703Z,23.21
2023-05-19T14:45:02.816Z,23.27
2023-05-19T14:48:06.607Z,23.23
2023-05-19T14:51:09.937Z,23.11
2023-05-19T14:54:13.373Z,23.30
2023-05-19T14:57:16.645Z,23.42
2023-05-19T15:00:20.181Z,23.60
2023-05-19T15:03:23.544Z,23.61
2023-05-19T15:06:27.063Z,23.65
2023-05-19T15:09:30.090Z,23.56
2023-05-19T15:12:33.798Z,23.38
2023-05-19T15:15:36.964Z,23.28
2023-05-19T15:18:40.582Z,23.14
2023-05-19T15:21:45.724Z,23.08
2023-05-19T15:24:49.143Z,23.12
2023-05-19T15:27:52.282Z,23.20
2023-05-19T15:30:55.916Z,23.08
2023-05-19T15:33:59.112Z,23.03
2023-05-19T15:37:02.565Z,23.00
2023-05-19T15:40:06.612Z,22.94
2023-05-19T15:43:10.031Z,22.88
2023-05-19T15:46:13.474Z,22.89
2023-05-19T15:49:18.071Z,22.94
2023-05-19T15:52:21.457Z,22.90
2023-05-19T15:55:24.860Z,22.81
2023-05-19T15:58:28.046Z,22.67
2023-05-19T16:01:32.625Z,22.73
2023-05-19T16:04:36.188Z,22.73
2023-05-19T16:07:39.375Z,22.74
2023-05-19T16:10:42.746Z,22.85
2023-05-19T16:13:46.530Z,22.70
2023-05-19T16:16:49.947Z,22.83
2023-05-19T16:19:53.182Z,22.78
2023-05-19T16:22:56.646Z,22.67
2023-05-19T16:25:59.647Z,22.50
2023-05-19T16:29:03.197Z,22.28
2023-05-19T16:32:06.805Z,22.13
2023-05-19T16:35:11.056Z,22.04
2023-05-19T16:38:14.213Z,21.95
2023-05-19T16:41:17.649Z,21.83
2023-05-19T16:44:21.009Z,21.76
2023-05-19T16:47:25.568Z,21.68
2023-05-19T16:50:28.683Z,21.49
2023-05-19T16:53:33.258Z,21.32
2023-05-19T16:56:36.452Z,21.19
2023-05-19T16:59:39.996Z,21.08
2023-05-19T17:02:43.261Z,20.93
2023-05-19T17:05:46.837Z,20.76
2023-05-19T17:08:50.078Z,20.62
2023-05-19T17:11:54.179Z,20.41
2023-05-19T17:14:57.619Z,20.25
2023-05-19T17:18:01.091Z,20.04
2023-05-19T17:21:05.571Z,19.87
2023-05-19T17:24:09.193Z,19.74
2023-05-19T17:27:12.308Z,19.61
2023-05-19T17:30:16.635Z,19.52
2023-05-19T17:33:19.891Z,19.27
2023-05-19T17:36:23.348Z,19.12
2023-05-19T17:39:26.505Z,18.94
2023-05-19T17:42:31.773Z,18.73
2023-05-19T17:45:35.225Z,18.56
2023-05-19T17:48:40.034Z,18.45
2023-05-19T17:51:43.563Z,18.26
2023-05-19T17:54:47.180Z,18.09
2023-05-19T17:57:50.801Z,17.88
2023-05-19T18:00:55.292Z,17.70
2023-05-19T18:03:59.229Z,17.48
2023-05-19T18:07:03.775Z,17.39
2023-05-19T18:10:08.460Z,17.28
2023-05-19T18:13:14.419Z,17.25
2023-05-19T18:16:17.809Z,17.19
2023-05-19T18:19:20.962Z,17.02
2023-05-19T18:22:24.491Z,16.87
2023-05-19T18:25:27.781Z,16.76
2023-05-19T18:28:31.171Z,16.61
2023-05-19T18:31:35.712Z,16.46
2023-05-19T18:34:39.228Z,16.36
2023-05-19T18:37:42.597Z,16.22
2023-05-19T18:40:46.178Z,16.14
2023-05-19T18:43:49.357Z,16.00
2023-05-19T18:46:53.728Z,15.92
2023-05-19T18:49:56.871Z,15.76
2023-05-19T18:53:00.661Z,15.66
2023-05-19T18:56:04.263Z,15.57
2023-05-19T18:59:09.977Z,15.47
2023-05-19T19:02:13.381Z,15.43
2023-05-19T19:05:16.798Z,15.35
2023-05-19T19:08:20.087Z,15.29
2023-05-19T19:11:23.772Z,15.18
2023-05-19T19:14:26.985Z,15.11
2023-05-19T19:17:30.883Z,15.03
2023-05-19T19:20:34.968Z,14.88
2023-05-19T19:23:39.819Z,14.80
2023-05-19T19:26:42.927Z,14.67
2023-05-19T19:29:51.292Z,14.57
2023-05-19T19:32:56.726Z,14.54
2023-05-19T19:36:00.899Z,14.46
2023-05-19T19:39:04.149Z,14.38
2023-05-19T19:42:07.591Z,14.30
2023-05-19T19:45:13.100Z,14.21
2023-05-19T19:48:18.212Z,14.23
2023-05-19T19:51:21.424Z,14.19
2023-05-19T19:54:25.011Z,14.25
2023-05-19T19:57:29.371Z,14.27
2023-05-19T20:00:33.277Z,14.35
2023-05-19T20:03:37.435Z,14.34
2023-05-19T20:06:41.085Z,14.33
2023-05-19T20:09:44.607Z,14.28
2023-05-19T20:12:48.022Z,14.28
2023-05-19T20:15:51.654Z,14.25
2023-05-19T20:18:54.908Z,14.26
2023-05-19T20:21:58.379Z,14.19
2023-05-19T20:25:02.016Z,14.23
2023-05-19T20:28:05.385Z,14.13
2023-05-19T20:31:09.457Z,14.26
2023-05-19T20:34:12.956Z,14.34
2023-05-19T20:37:17.446Z,14.41
2023-05-19T20:40:20.878Z,14.43
2023-05-19T20:43:24.178Z,14.51
2023-05-19T20:46:27.891Z,14.60
2023-05-19T20:49:31.347Z,14.62
2023-05-19T20:52:34.860Z,14.72
2023-05-19T20:55:39.174Z,14.79
2023-05-19T20:58:43.126Z,14.83
2023-05-19T21:01:46.512Z,14.83
2023-05-19T21:04:50.939Z,14.81
2023-05-19T21:07:54.157Z,14.89
2023-05-19T21:10:57.539Z,14.82
2023-05-19T21:14:04.372Z,14.84
2023-05-19T21:17:08.371Z,14.81
2023-05-19T21:20:12.712Z,14.82
2023-05-19T21:23:16.181Z,14.82
2023-05-19T21:26:19.470Z,14.75
2023-05-19T21:29:22.887Z,14.63
2023-05-19T21:32:26.288Z,14.65
2023-05-19T21:35:29.725Z,14.60
2023-05-19T21:38:32.844Z,14.48
2023-05-19T21:41:36.390Z,14.37
2023-05-19T21:44:39.555Z,14.26
2023-05-19T21:47:43.147Z,14.15
2023-05-19T21:50:46.257Z,14.01
2023-05-19T21:53:49.784Z,13.89
2023-05-19T21:56:53.019Z,13.81
2023-05-19T21:59:56.632Z,13.76
2023-05-19T22:03:00.422Z,13.70
2023-05-19T22:06:06.518Z,13.61
2023-05-19T22:09:11.100Z,13.64
2023-05-19T22:12:14.462Z,13.58
2023-05-19T22:15:18.575Z,13.45
2023-05-19T22:18:22.124Z,13.50
2023-05-19T22:21:25.293Z,13.37
2023-05-19T22:24:28.778Z,13.30
2023-05-19T22:27:32.177Z,13.31
2023-05-19T22:30:38.498Z,13.23
2023-05-19T22:33:43.002Z,13.20
2023-05-19T22:36:46.416Z,13.21
2023-05-19T22:39:49.610Z,13.20
2023-05-19T22:42:53.055Z,13.27
2023-05-19T22:45:56.409Z,13.28
2023-05-19T22:49:00.159Z,13.11
2023-05-19T22:52:03.385Z,13.28
2023-05-19T22:55:07.485Z,13.26
2023-05-19T22:58:10.795Z,13.20
2023-05-19T23:01:14.236Z,13.21
2023-05-19T23:04:17.729Z,13.21
2023-05-19T23:07:21.466Z,13.16
2023-05-19T23:10:24.669Z,13.13
2023-05-19T23:13:28.233Z,13.08
2023-05-19T23:16:31.508Z,13.06
2023-05-19T23:19:36.573Z,12.94
2023-05-19T23:22:39.771Z,12.93
2023-05-19T23:25:43.243Z,12.84
2023-05-19T23:28:46.375Z,12.80
2023-05-19T23:31:49.796Z,12.57
2023-05-19T23:34:52.920Z,12.64
2023-05-19T23:37:56.580Z,12.71
2023-05-19T23:40:59.761Z,12.66
2023-05-19T23:44:04.230Z,12.75
2023-05-19T23:47:07.544Z,12.68
2023-05-19T23:50:11.545Z,12.62
2023-05-19T23:53:14.766Z,12.65
2023-05-19T23:56:18.374Z,12.54
2023-05-19T23:59:21.493Z,12.61
